Terminal Aerodrome Forecast
Issued by NWS Goodland, KS

Home | Current Version | Previous Version | Text Only | Print | Product List | Glossary On
Versions: 1 2 3 4 5 6 7 8 9 10 11 12 13 14
085
FTUS43 KGLD 231133 AAC
TAFGLD
TAF AMD
KGLD 231133Z 2312/2412 VRB06KT P6SM SCT100
     FM231500 23008KT P6SM SCT250
     FM231700 36007KT P6SM SCT070
     FM232200 04006KT P6SM VCTS SCT060CB
     FM240400 02008KT P6SM BKN100=

USA.gov is the U.S. government's official web portal to all federal, state and local government web resources and services.